Time;durP1;ratioP1;P1;durP2;ratioP2;P2;SDS_P1;SDS_P2;PMS_P1;PMS_P2;Temp;Humidity;BMP_temperature;BMP_pressure;BME280_temperature;BME280_humidity;BME280_pressure;Samples;Min_cycle;Max_cycle;Signal;HPM_P1;HPM_P2
2024/03/27 00:01:26;;;;;;;;;;;;;;;;;;5012487;28;20000;-60
2024/03/27 00:03:52;;;;;;;;;;;;;;;;;;5010525;28;19917;-59
2024/03/27 00:06:18;;;;;;;;;;;;;;;;;;5013460;28;20451;-60
2024/03/27 00:08:45;;;;;;;;;;;;;;;;;;5012291;28;19936;-59
2024/03/27 00:11:11;;;;;;;;;;;;;;;;;;5011579;28;19917;-59
2024/03/27 00:13:37;;;;;;;;;;;;;;;;;;5011459;28;19917;-59
2024/03/27 00:16:03;;;;;;;;;;;;;;;;;;5015998;28;19914;-60
2024/03/27 00:18:29;;;;;;;;;;;;;;;;;;5012125;28;20012;-59
2024/03/27 00:20:55;;;;;;;;;;;;;;;;;;5011768;28;20375;-60
2024/03/27 00:23:21;;;;;;;;;;;;;;;;;;5011473;28;19947;-60
2024/03/27 00:25:47;;;;;;;;;;;;;;;;;;5011007;28;20288;-59
2024/03/27 00:28:13;;;;;;;;;;;;;;;;;;5014538;28;19913;-60
2024/03/27 00:30:39;;;;;;;;;;;;;;;;;;5013205;28;19909;-60
2024/03/27 00:33:05;;;;;;;;;;;;;;;;;;5011676;28;19925;-60
2024/03/27 00:35:31;;;;;;;;;;;;;;;;;;5012582;28;19972;-58
2024/03/27 00:37:57;;;;;;;;;;;;;;;;;;5011508;28;19909;-59
2024/03/27 00:40:23;;;;;;;;;;;;;;;;;;5011079;28;19913;-59
2024/03/27 00:42:49;;;;;;;;;;;;;;;;;;5014071;28;19962;-59
2024/03/27 00:45:15;;;;;;;;;;;;;;;;;;5019043;28;19924;-59
2024/03/27 00:47:41;;;;;;;;;;;;;;;;;;5022691;28;19914;-59
2024/03/27 00:50:08;;;;;;;;;;;;;;;;;;5016700;28;19917;-60
2024/03/27 00:52:34;;;;;;;;;;;;;;;;;;5011103;28;20352;-60
2024/03/27 00:54:59;;;;;;;;;;;;;;;;;;5011230;28;19920;-59
2024/03/27 00:57:25;;;;;;;;;;;;;;;;;;5010818;28;20294;-60
2024/03/27 00:59:51;;;;;;;;;;;;;;;;;;5011318;28;19913;-57
2024/03/27 01:02:17;;;;;;;;;;;;;;;;;;5010918;28;19914;-59
2024/03/27 01:04:43;;;;;;;;;;;;;;;;;;5011124;28;19964;-59
2024/03/27 01:07:09;;;;;;;;;;;;;;;;;;5010976;28;20298;-59
2024/03/27 01:09:35;;;;;;;;;;;;;;;;;;5008413;28;19914;-59
2024/03/27 01:12:01;;;;;;;;;;;;;;;;;;5008174;28;19992;-59
2024/03/27 01:14:27;;;;;;;;;;;;;;;;;;5009490;28;19917;-59
2024/03/27 01:16:53;;;;;;;;;;;;;;;;;;5013835;28;20353;-58
2024/03/27 01:19:19;;;;;;;;;;;;;;;;;;5016637;28;19914;-60
2024/03/27 01:21:44;;;;;;;;;;;;;;;;;;5013989;28;19914;-58
2024/03/27 01:24:10;;;;;;;;;;;;;;;;;;5014581;28;19916;-60
2024/03/27 01:26:37;;;;;;;;;;;;;;;;;;5014204;28;19956;-60
2024/03/27 01:29:03;;;;;;;;;;;;;;;;;;5013956;28;19915;-57
2024/03/27 01:31:29;;;;;;;;;;;;;;;;;;5014271;28;20004;-60
2024/03/27 01:33:54;;;;;;;;;;;;;;;;;;5014433;28;19913;-60
2024/03/27 01:36:20;;;;;;;;;;;;;;;;;;5014554;28;19917;-60
2024/03/27 01:38:46;;;;;;;;;;;;;;;;;;5014771;28;20404;-60
2024/03/27 01:41:12;;;;;;;;;;;;;;;;;;5014542;28;19921;-59
2024/03/27 01:43:38;;;;;;;;;;;;;;;;;;5016747;28;19964;-59
2024/03/27 01:46:04;;;;;;;;;;;;;;;;;;5013220;28;20292;-58
2024/03/27 01:48:30;;;;;;;;;;;;;;;;;;5014883;28;19909;-60
2024/03/27 01:50:55;;;;;;;;;;;;;;;;;;5013074;28;20020;-59
2024/03/27 01:53:21;;;;;;;;;;;;;;;;;;5015349;28;19925;-58
2024/03/27 01:55:47;;;;;;;;;;;;;;;;;;5014501;28;20330;-59
2024/03/27 01:58:13;;;;;;;;;;;;;;;;;;5023695;28;19913;-56
2024/03/27 02:00:39;;;;;;;;;;;;;;;;;;5012121;28;19914;-59
2024/03/27 02:03:05;;;;;;;;;;;;;;;;;;5012842;28;19917;-59
2024/03/27 02:05:30;;;;;;;;;;;;;;;;;;5016348;28;19913;-57
2024/03/27 02:07:56;;;;;;;;;;;;;;;;;;5016161;28;19909;-58
2024/03/27 02:10:22;;;;;;;;;;;;;;;;;;5013935;28;19910;-59
2024/03/27 02:12:48;;;;;;;;;;;;;;;;;;5013121;28;20338;-57
2024/03/27 02:15:14;;;;;;;;;;;;;;;;;;5012401;28;19913;-59
2024/03/27 02:17:40;;;;;;;;;;;;;;;;;;5013596;28;19914;-59
2024/03/27 02:20:06;;;;;;;;;;;;;;;;;;5014327;28;20364;-59
2024/03/27 02:22:33;;;;;;;;;;;;;;;;;;5013933;28;19909;-59
2024/03/27 02:24:59;;;;;;;;;;;;;;;;;;5011256;28;19917;-60
2024/03/27 02:27:25;;;;;;;;;;;;;;;;;;5013817;28;19997;-58
2024/03/27 02:29:51;;;;;;;;;;;;;;;;;;5012790;28;19932;-59
2024/03/27 02:32:17;;;;;;;;;;;;;;;;;;5013704;28;21350;-59
2024/03/27 02:34:43;;;;;;;;;;;;;;;;;;5013787;28;19925;-59
2024/03/27 02:37:09;;;;;;;;;;;;;;;;;;5012964;28;20285;-59
2024/03/27 02:39:35;;;;;;;;;;;;;;;;;;5013283;28;19921;-59
2024/03/27 02:42:00;;;;;;;;;;;;;;;;;;5013261;28;19920;-59
2024/03/27 02:44:26;;;;;;;;;;;;;;;;;;5011199;28;19920;-59
2024/03/27 02:46:52;;;;;;;;;;;;;;;;;;5012260;28;20286;-58
2024/03/27 02:49:18;;;;;;;;;;;;;;;;;;5013158;28;19909;-58
2024/03/27 02:51:44;;;;;;;;;;;;;;;;;;5013541;28;20008;-60
2024/03/27 02:54:10;;;;;;;;;;;;;;;;;;5013270;28;19918;-58
2024/03/27 02:56:35;;;;;;;;;;;;;;;;;;5012952;28;20265;-60
2024/03/27 02:59:01;;;;;;;;;;;;;;;;;;5011845;28;19909;-58
2024/03/27 03:01:27;;;;;;;;;;;;;;;;;;5017332;28;19963;-60
2024/03/27 03:03:53;;;;;;;;;;;;;;;;;;5015221;28;19913;-58
2024/03/27 03:06:19;;;;;;;;;;;;;;;;;;5014372;28;20076;-58
2024/03/27 03:08:45;;;;;;;;;;;;;;;;;;5012761;28;19921;-60
2024/03/27 03:11:11;;;;;;;;;;;;;;;;;;5012268;28;19916;-59
2024/03/27 03:13:37;;;;;;;;;;;;;;;;;;5014012;28;19917;-58
2024/03/27 03:16:04;;;;;;;;;;;;;;;;;;5016844;28;20287;-58
2024/03/27 03:18:30;;;;;;;;;;;;;;;;;;5012684;28;20426;-58
2024/03/27 03:20:56;;;;;;;;;;;;;;;;;;5012575;28;19914;-58
2024/03/27 03:23:21;;;;;;;;;;;;;;;;;;5013897;28;20392;-59
2024/03/27 03:25:47;;;;;;;;;;;;;;;;;;5014410;28;19959;-60
2024/03/27 03:28:13;;;;;;;;;;;;;;;;;;5012679;28;19916;-59
2024/03/27 03:30:39;;;;;;;;;;;;;;;;;;5010176;28;19914;-60
2024/03/27 03:33:05;;;;;;;;;;;;;;;;;;5010614;28;20382;-59
2024/03/27 03:35:31;;;;;;;;;;;;;;;;;;5012196;28;19968;-60
2024/03/27 03:37:57;;;;;;;;;;;;;;;;;;5014548;28;19920;-61
2024/03/27 03:40:23;;;;;;;;;;;;;;;;;;5011255;28;20022;-60
2024/03/27 03:42:48;;;;;;;;;;;;;;;;;;5011350;28;20400;-60
2024/03/27 03:45:14;;;;;;;;;;;;;;;;;;5010925;28;20004;-60
2024/03/27 03:47:40;;;;;;;;;;;;;;;;;;5012298;28;20272;-60
2024/03/27 03:50:06;;;;;;;;;;;;;;;;;;5012028;28;19963;-61
2024/03/27 03:52:32;;;;;;;;;;;;;;;;;;5011928;28;19920;-60
2024/03/27 03:54:58;;;;;;;;;;;;;;;;;;5010877;28;20399;-61
2024/03/27 03:57:24;;;;;;;;;;;;;;;;;;5011581;28;19944;-61
2024/03/27 03:59:50;;;;;;;;;;;;;;;;;;5011684;28;20400;-60
2024/03/27 04:02:16;;;;;;;;;;;;;;;;;;5012483;28;19940;-60
2024/03/27 04:04:42;;;;;;;;;;;;;;;;;;5011802;28;19918;-58
2024/03/27 04:07:07;;;;;;;;;;;;;;;;;;5011853;28;19910;-57
2024/03/27 04:09:33;;;;;;;;;;;;;;;;;;5011462;28;19909;-61
2024/03/27 04:11:59;;;;;;;;;;;;;;;;;;5010064;28;19972;-60
2024/03/27 04:14:25;;;;;;;;;;;;;;;;;;5011180;28;19932;-60
2024/03/27 04:16:51;;;;;;;;;;;;;;;;;;5014448;28;20384;-60
2024/03/27 04:19:17;;;;;;;;;;;;;;;;;;5011408;28;19921;-60
2024/03/27 04:21:42;;;;;;;;;;;;;;;;;;5010960;28;19909;-59
2024/03/27 04:24:08;;;;;;;;;;;;;;;;;;5012002;28;19920;-60
2024/03/27 04:26:34;;;;;;;;;;;;;;;;;;5013345;28;20431;-60
2024/03/27 04:29:00;;;;;;;;;;;;;;;;;;5012214;28;19918;-60
2024/03/27 04:31:26;;;;;;;;;;;;;;;;;;5009456;28;19913;-60
2024/03/27 04:33:52;;;;;;;;;;;;;;;;;;5010450;28;20412;-60
2024/03/27 04:36:18;;;;;;;;;;;;;;;;;;5011188;28;20036;-60
2024/03/27 04:38:44;;;;;;;;;;;;;;;;;;5012438;28;19921;-59
2024/03/27 04:41:09;;;;;;;;;;;;;;;;;;5010648;28;20417;-59
2024/03/27 04:43:37;;;;;;;;;;;;;;;;;;5012060;28;19913;-59
2024/03/27 04:46:03;;;;;;;;;;;;;;;;;;5009933;28;19965;-60
2024/03/27 04:48:29;;;;;;;;;;;;;;;;;;5011005;28;20408;-59
2024/03/27 04:50:55;;;;;;;;;;;;;;;;;;5010288;28;19921;-61
2024/03/27 04:53:21;;;;;;;;;;;;;;;;;;5010245;28;20008;-60
2024/03/27 04:55:46;;;;;;;;;;;;;;;;;;5010487;28;19909;-60
2024/03/27 04:58:13;;;;;;;;;;;;;;;;;;5015208;28;20026;-60
2024/03/27 05:00:38;;;;;;;;;;;;;;;;;;5011104;28;19916;-60
2024/03/27 05:03:04;;;;;;;;;;;;;;;;;;5011209;28;19913;-60
2024/03/27 05:05:30;;;;;;;;;;;;;;;;;;5011171;28;19996;-59
2024/03/27 05:07:56;;;;;;;;;;;;;;;;;;5011277;28;19910;-60
2024/03/27 05:10:22;;;;;;;;;;;;;;;;;;5010422;28;20398;-60
2024/03/27 05:12:48;;;;;;;;;;;;;;;;;;5010495;28;19984;-59
2024/03/27 05:15:13;;;;;;;;;;;;;;;;;;5011055;28;19920;-60
2024/03/27 05:17:39;;;;;;;;;;;;;;;;;;5013119;28;19917;-60
2024/03/27 05:20:06;;;;;;;;;;;;;;;;;;5003506;28;20388;-60
2024/03/27 05:22:32;;;;;;;;;;;;;;;;;;5009891;28;19917;-60
2024/03/27 05:24:59;;;;;;;;;;;;;;;;;;5010595;28;20333;-59
2024/03/27 05:27:25;;;;;;;;;;;;;;;;;;5012323;28;19925;-60
2024/03/27 05:29:51;;;;;;;;;;;;;;;;;;5012775;28;20265;-59
2024/03/27 05:32:17;;;;;;;;;;;;;;;;;;5011106;28;20055;-58
2024/03/27 05:34:42;;;;;;;;;;;;;;;;;;5010491;28;19928;-60
2024/03/27 05:37:08;;;;;;;;;;;;;;;;;;5010840;28;19963;-60
2024/03/27 05:39:34;;;;;;;;;;;;;;;;;;5010724;28;20552;-60
2024/03/27 05:42:00;;;;;;;;;;;;;;;;;;5009997;28;19913;-60
2024/03/27 05:44:26;;;;;;;;;;;;;;;;;;5010810;28;19910;-60
2024/03/27 05:46:53;;;;;;;;;;;;;;;;;;5009908;28;19914;-60
2024/03/27 05:49:21;;;;;;;;;;;;;;;;;;5011676;28;21292;-60
2024/03/27 05:51:47;;;;;;;;;;;;;;;;;;5010447;28;20443;-59
2024/03/27 05:54:13;;;;;;;;;;;;;;;;;;5009914;28;20513;-60
2024/03/27 05:56:39;;;;;;;;;;;;;;;;;;5007113;28;19913;-60
2024/03/27 05:59:05;;;;;;;;;;;;;;;;;;5008901;28;20364;-60
2024/03/27 06:01:31;;;;;;;;;;;;;;;;;;5011826;28;19941;-60
2024/03/27 06:03:57;;;;;;;;;;;;;;;;;;5012995;28;19914;-58
2024/03/27 06:06:23;;;;;;;;;;;;;;;;;;5014404;28;19914;-57
2024/03/27 06:08:48;;;;;;;;;;;;;;;;;;5016798;28;20314;-58
2024/03/27 06:11:15;;;;;;;;;;;;;;;;;;5011779;28;19921;-60
2024/03/27 06:13:41;;;;;;;;;;;;;;;;;;5012481;28;19979;-57
2024/03/27 06:16:07;;;;;;;;;;;;;;;;;;5016284;28;20360;-56
2024/03/27 06:18:32;;;;;;;;;;;;;;;;;;5015725;28;19914;-60
2024/03/27 06:20:58;;;;;;;;;;;;;;;;;;5012696;28;19917;-59
2024/03/27 06:23:24;;;;;;;;;;;;;;;;;;5014517;28;19929;-60
2024/03/27 06:25:50;;;;;;;;;;;;;;;;;;5013576;28;20310;-59
2024/03/27 06:28:16;;;;;;;;;;;;;;;;;;5014968;28;19936;-60
2024/03/27 06:30:42;;;;;;;;;;;;;;;;;;5015502;28;19914;-59
2024/03/27 06:33:07;;;;;;;;;;;;;;;;;;5011965;28;19913;-59
2024/03/27 06:35:33;;;;;;;;;;;;;;;;;;5012802;28;19972;-59
2024/03/27 06:37:59;;;;;;;;;;;;;;;;;;5013353;28;19913;-60
2024/03/27 06:40:25;;;;;;;;;;;;;;;;;;5015661;28;19932;-59
2024/03/27 06:42:51;;;;;;;;;;;;;;;;;;5011537;28;19914;-58
2024/03/27 06:45:17;;;;;;;;;;;;;;;;;;5012586;28;19910;-59
2024/03/27 06:47:43;;;;;;;;;;;;;;;;;;5012488;28;19913;-59
2024/03/27 06:50:10;;;;;;;;;;;;;;;;;;5008452;28;20291;-58
2024/03/27 06:52:36;;;;;;;;;;;;;;;;;;5012651;28;20290;-62
2024/03/27 06:55:01;;;;;;;;;;;;;;;;;;5007874;28;20063;-63
2024/03/27 06:57:27;;;;;;;;;;;;;;;;;;5011741;28;20331;-63
2024/03/27 06:59:53;;;;;;;;;;;;;;;;;;5009618;28;19913;-64
2024/03/27 07:02:19;;;;;;;;;;;;;;;;;;5012165;28;19928;-63
2024/03/27 07:04:45;;;;;;;;;;;;;;;;;;5009978;28;19947;-64
2024/03/27 07:07:11;;;;;;;;;;;;;;;;;;5011834;28;20566;-63
2024/03/27 07:09:37;;;;;;;;;;;;;;;;;;5009141;28;19913;-62
2024/03/27 07:12:02;;;;;;;;;;;;;;;;;;5011943;28;19913;-63
2024/03/27 07:14:28;;;;;;;;;;;;;;;;;;5010151;28;19918;-64
2024/03/27 07:16:54;;;;;;;;;;;;;;;;;;5012484;28;20103;-64
2024/03/27 07:19:20;;;;;;;;;;;;;;;;;;5011475;28;19931;-61
2024/03/27 07:21:46;;;;;;;;;;;;;;;;;;5013261;28;19914;-64
2024/03/27 07:24:12;;;;;;;;;;;;;;;;;;5011562;28;20408;-64
2024/03/27 07:26:37;;;;;;;;;;;;;;;;;;5011540;28;19925;-64
2024/03/27 07:29:03;;;;;;;;;;;;;;;;;;5013525;28;19920;-63
2024/03/27 07:31:29;;;;;;;;;;;;;;;;;;5011949;28;19968;-60
2024/03/27 07:33:55;;;;;;;;;;;;;;;;;;5013577;28;20577;-64
2024/03/27 07:36:21;;;;;;;;;;;;;;;;;;5009257;28;19941;-64
2024/03/27 07:38:47;;;;;;;;;;;;;;;;;;5011824;28;20039;-63
2024/03/27 07:41:13;;;;;;;;;;;;;;;;;;5012251;28;20020;-64
2024/03/27 07:43:38;;;;;;;;;;;;;;;;;;5010443;28;20310;-63
2024/03/27 07:46:04;;;;;;;;;;;;;;;;;;5010555;28;19921;-61
2024/03/27 07:48:30;;;;;;;;;;;;;;;;;;5012690;28;19917;-63
2024/03/27 07:50:56;;;;;;;;;;;;;;;;;;5009273;28;19914;-64
2024/03/27 07:53:22;;;;;;;;;;;;;;;;;;5011879;28;20277;-63
2024/03/27 07:55:48;;;;;;;;;;;;;;;;;;5011735;28;19928;-63
2024/03/27 07:58:13;;;;;;;;;;;;;;;;;;5011622;28;19978;-63
2024/03/27 08:00:40;;;;;;;;;;;;;;;;;;5011329;28;19921;-62
2024/03/27 08:03:06;;;;;;;;;;;;;;;;;;5011480;28;19909;-64
2024/03/27 08:05:32;;;;;;;;;;;;;;;;;;5009669;28;19917;-63
2024/03/27 08:07:58;;;;;;;;;;;;;;;;;;5010785;28;19914;-62
2024/03/27 08:10:24;;;;;;;;;;;;;;;;;;5012243;28;19913;-63
2024/03/27 08:12:50;;;;;;;;;;;;;;;;;;5011629;28;20376;-63
2024/03/27 08:15:16;;;;;;;;;;;;;;;;;;5010152;28;19928;-64
2024/03/27 08:17:41;;;;;;;;;;;;;;;;;;5011601;28;19914;-63
2024/03/27 08:20:07;;;;;;;;;;;;;;;;;;5008208;28;19921;-63
2024/03/27 08:22:33;;;;;;;;;;;;;;;;;;5012482;28;20260;-63
2024/03/27 08:24:59;;;;;;;;;;;;;;;;;;5013170;28;19957;-62
2024/03/27 08:27:25;;;;;;;;;;;;;;;;;;5011240;28;19918;-63
2024/03/27 08:29:51;;;;;;;;;;;;;;;;;;5008824;28;19918;-61
2024/03/27 08:32:17;;;;;;;;;;;;;;;;;;5010622;28;19924;-63
2024/03/27 08:34:43;;;;;;;;;;;;;;;;;;5012121;28;19970;-62
2024/03/27 08:37:08;;;;;;;;;;;;;;;;;;5011155;28;19916;-63
2024/03/27 08:39:34;;;;;;;;;;;;;;;;;;5012271;28;20375;-64
2024/03/27 08:42:00;;;;;;;;;;;;;;;;;;5008960;28;19920;-64
2024/03/27 08:44:26;;;;;;;;;;;;;;;;;;5010694;28;19913;-62
2024/03/27 08:46:52;;;;;;;;;;;;;;;;;;5010798;28;19936;-63
2024/03/27 08:49:18;;;;;;;;;;;;;;;;;;5008686;28;19925;-63
2024/03/27 08:51:44;;;;;;;;;;;;;;;;;;5009341;28;20288;-62
2024/03/27 08:54:10;;;;;;;;;;;;;;;;;;5010245;28;19952;-62
2024/03/27 08:56:36;;;;;;;;;;;;;;;;;;5010523;28;20000;-62
2024/03/27 08:59:02;;;;;;;;;;;;;;;;;;5010086;28;20344;-60
2024/03/27 09:01:28;;;;;;;;;;;;;;;;;;5008289;28;20003;-63
2024/03/27 09:03:54;;;;;;;;;;;;;;;;;;5010339;28;19917;-64
2024/03/27 09:06:20;;;;;;;;;;;;;;;;;;5008799;28;19918;-64
2024/03/27 09:08:45;;;;;;;;;;;;;;;;;;5010279;28;19924;-63
2024/03/27 09:11:11;;;;;;;;;;;;;;;;;;5011770;28;19928;-63
2024/03/27 09:13:37;;;;;;;;;;;;;;;;;;5012406;28;19993;-62
2024/03/27 09:16:03;;;;;;;;;;;;;;;;;;5013468;28;20407;-62
2024/03/27 09:18:29;;;;;;;;;;;;;;;;;;5010164;28;19913;-61
2024/03/27 09:20:55;;;;;;;;;;;;;;;;;;5009506;28;20064;-63
2024/03/27 09:23:20;;;;;;;;;;;;;;;;;;5010105;28;19913;-61
2024/03/27 09:25:46;;;;;;;;;;;;;;;;;;5010372;28;20358;-61
2024/03/27 09:28:12;;;;;;;;;;;;;;;;;;5009521;28;19913;-64
2024/03/27 09:30:38;;;;;;;;;;;;;;;;;;5011874;28;19921;-62
2024/03/27 09:33:04;;;;;;;;;;;;;;;;;;5009780;28;19921;-63
2024/03/27 09:35:30;;;;;;;;;;;;;;;;;;5011892;28;20243;-63
2024/03/27 09:37:56;;;;;;;;;;;;;;;;;;5012899;28;19917;-63
2024/03/27 09:40:22;;;;;;;;;;;;;;;;;;5013948;28;20386;-63
2024/03/27 09:42:48;;;;;;;;;;;;;;;;;;5014286;28;19917;-63
2024/03/27 09:45:13;;;;;;;;;;;;;;;;;;5013051;28;20314;-63
2024/03/27 09:47:41;;;;;;;;;;;;;;;;;;5015029;28;19964;-62
2024/03/27 09:50:07;;;;;;;;;;;;;;;;;;5011729;28;19914;-63
2024/03/27 09:52:33;;;;;;;;;;;;;;;;;;5014298;28;19933;-63
2024/03/27 09:54:58;;;;;;;;;;;;;;;;;;5014729;28;19924;-63
2024/03/27 09:57:24;;;;;;;;;;;;;;;;;;5014090;28;19917;-63
2024/03/27 09:59:50;;;;;;;;;;;;;;;;;;5014530;28;20013;-61
2024/03/27 10:02:16;;;;;;;;;;;;;;;;;;5012560;28;19921;-63
2024/03/27 10:04:42;;;;;;;;;;;;;;;;;;5015323;28;19939;-63
2024/03/27 10:07:09;;;;;;;;;;;;;;;;;;5014718;28;20351;-63
2024/03/27 10:09:35;;;;;;;;;;;;;;;;;;5011954;28;19917;-60
2024/03/27 10:12:01;;;;;;;;;;;;;;;;;;5016246;28;19928;-63
2024/03/27 10:14:27;;;;;;;;;;;;;;;;;;5016250;28;19925;-63
2024/03/27 10:16:53;;;;;;;;;;;;;;;;;;5014394;28;19921;-63
2024/03/27 10:19:19;;;;;;;;;;;;;;;;;;5014182;28;19917;-63
2024/03/27 10:21:45;;;;;;;;;;;;;;;;;;5016762;28;20399;-63
2024/03/27 10:24:11;;;;;;;;;;;;;;;;;;5012904;28;19935;-63
2024/03/27 10:26:37;;;;;;;;;;;;;;;;;;5015983;28;19917;-62
2024/03/27 10:29:02;;;;;;;;;;;;;;;;;;5017573;28;20007;-61
2024/03/27 10:31:28;;;;;;;;;;;;;;;;;;5011245;28;20375;-63
2024/03/27 10:33:54;;;;;;;;;;;;;;;;;;5011952;28;19917;-63
2024/03/27 10:36:20;;;;;;;;;;;;;;;;;;5014561;28;20015;-63
2024/03/27 10:38:46;;;;;;;;;;;;;;;;;;5015323;28;19932;-63
2024/03/27 10:41:13;;;;;;;;;;;;;;;;;;5010729;28;19917;-62
2024/03/27 10:43:40;;;;;;;;;;;;;;;;;;5012251;28;20426;-62
2024/03/27 10:46:06;;;;;;;;;;;;;;;;;;5010125;28;19956;-63
2024/03/27 10:48:32;;;;;;;;;;;;;;;;;;5013145;28;19918;-60
2024/03/27 10:50:58;;;;;;;;;;;;;;;;;;5008126;28;20031;-62
2024/03/27 10:53:24;;;;;;;;;;;;;;;;;;5008781;28;20637;-63
2024/03/27 10:55:49;;;;;;;;;;;;;;;;;;5006571;28;19918;-63
2024/03/27 10:58:15;;;;;;;;;;;;;;;;;;5008821;28;19932;-63
2024/03/27 11:00:42;;;;;;;;;;;;;;;;;;5011037;28;19923;-62
2024/03/27 11:03:08;;;;;;;;;;;;;;;;;;5009024;28;19933;-62
2024/03/27 11:05:34;;;;;;;;;;;;;;;;;;5010317;28;20045;-63
2024/03/27 11:08:00;;;;;;;;;;;;;;;;;;5009077;28;20004;-63
2024/03/27 11:10:26;;;;;;;;;;;;;;;;;;5006092;28;19922;-61
2024/03/27 11:12:52;;;;;;;;;;;;;;;;;;5004938;28;19925;-62
2024/03/27 11:15:18;;;;;;;;;;;;;;;;;;5008428;28;20280;-64
2024/03/27 11:17:44;;;;;;;;;;;;;;;;;;5010725;28;19921;-63
2024/03/27 11:20:10;;;;;;;;;;;;;;;;;;5011304;28;20546;-63
2024/03/27 11:22:35;;;;;;;;;;;;;;;;;;5010880;28;19918;-63
2024/03/27 11:25:02;;;;;;;;;;;;;;;;;;5008673;28;20032;-62
2024/03/27 11:27:27;;;;;;;;;;;;;;;;;;5007602;28;19921;-63
2024/03/27 11:29:53;;;;;;;;;;;;;;;;;;5011813;28;19929;-61
2024/03/27 11:32:19;;;;;;;;;;;;;;;;;;5011193;28;19924;-61
2024/03/27 11:34:45;;;;;;;;;;;;;;;;;;5009120;28;20442;-63
2024/03/27 11:37:11;;;;;;;;;;;;;;;;;;5012918;28;19914;-63
2024/03/27 11:39:37;;;;;;;;;;;;;;;;;;5010869;28;19921;-62
2024/03/27 11:42:02;;;;;;;;;;;;;;;;;;5010590;28;19921;-62
2024/03/27 11:44:28;;;;;;;;;;;;;;;;;;5011957;28;20288;-63
2024/03/27 11:46:54;;;;;;;;;;;;;;;;;;5011778;28;19922;-63
2024/03/27 11:49:20;;;;;;;;;;;;;;;;;;5011246;28;20406;-63
2024/03/27 11:51:46;;;;;;;;;;;;;;;;;;5011055;28;20008;-63
2024/03/27 11:54:12;;;;;;;;;;;;;;;;;;5010927;28;20024;-61
2024/03/27 11:56:38;;;;;;;;;;;;;;;;;;5010884;28;19914;-62
2024/03/27 11:59:03;;;;;;;;;;;;;;;;;;5008283;28;20379;-62
2024/03/27 12:01:29;;;;;;;;;;;;;;;;;;5010015;28;19913;-61
2024/03/27 12:03:55;;;;;;;;;;;;;;;;;;5010713;28;19917;-59
2024/03/27 12:06:21;;;;;;;;;;;;;;;;;;5011901;28;19920;-62
2024/03/27 12:08:47;;;;;;;;;;;;;;;;;;5008867;28;20358;-63
2024/03/27 12:11:13;;;;;;;;;;;;;;;;;;5010750;28;19920;-62
2024/03/27 12:13:39;;;;;;;;;;;;;;;;;;5007435;28;19921;-62
2024/03/27 12:16:05;;;;;;;;;;;;;;;;;;5009010;28;20316;-63
2024/03/27 12:18:31;;;;;;;;;;;;;;;;;;5008776;28;19914;-61
2024/03/27 12:20:57;;;;;;;;;;;;;;;;;;5008998;28;20327;-61
2024/03/27 12:23:23;;;;;;;;;;;;;;;;;;5008480;28;19920;-62
2024/03/27 12:25:49;;;;;;;;;;;;;;;;;;5006793;28;20037;-63
2024/03/27 12:28:15;;;;;;;;;;;;;;;;;;5010749;28;19917;-62
2024/03/27 12:30:41;;;;;;;;;;;;;;;;;;5009065;28;19996;-63
2024/03/27 12:33:07;;;;;;;;;;;;;;;;;;5009497;28;19914;-62
2024/03/27 12:35:33;;;;;;;;;;;;;;;;;;5010042;28;20326;-61
2024/03/27 12:37:59;;;;;;;;;;;;;;;;;;5008670;28;19913;-63
2024/03/27 12:40:25;;;;;;;;;;;;;;;;;;5007965;28;20387;-61
2024/03/27 12:42:50;;;;;;;;;;;;;;;;;;5009394;28;19918;-62
2024/03/27 12:45:16;;;;;;;;;;;;;;;;;;5006998;28;19913;-63
2024/03/27 12:47:42;;;;;;;;;;;;;;;;;;5008967;28;19914;-63
2024/03/27 12:50:08;;;;;;;;;;;;;;;;;;5008126;28;19913;-61
2024/03/27 12:52:34;;;;;;;;;;;;;;;;;;5010913;28;19979;-60
2024/03/27 12:55:02;;;;;;;;;;;;;;;;;;5013777;28;19917;-60
2024/03/27 12:57:28;;;;;;;;;;;;;;;;;;5008968;28;19913;-62
2024/03/27 12:59:54;;;;;;;;;;;;;;;;;;5010176;28;20406;-61
2024/03/27 13:02:20;;;;;;;;;;;;;;;;;;5010685;28;19929;-62
2024/03/27 13:04:47;;;;;;;;;;;;;;;;;;5010576;28;19972;-63
2024/03/27 13:07:13;;;;;;;;;;;;;;;;;;5011990;28;19917;-62
2024/03/27 13:09:39;;;;;;;;;;;;;;;;;;5010159;28;19921;-62
2024/03/27 13:12:05;;;;;;;;;;;;;;;;;;5010242;28;20284;-61
2024/03/27 13:14:31;;;;;;;;;;;;;;;;;;5014483;28;19923;-62
2024/03/27 13:16:57;;;;;;;;;;;;;;;;;;5012081;28;20303;-62
2024/03/27 13:19:23;;;;;;;;;;;;;;;;;;5007755;28;20001;-60
2024/03/27 13:21:49;;;;;;;;;;;;;;;;;;5014001;28;20039;-62
2024/03/27 13:24:15;;;;;;;;;;;;;;;;;;5010061;28;19910;-62
2024/03/27 13:26:40;;;;;;;;;;;;;;;;;;5011703;28;20408;-62
2024/03/27 13:29:06;;;;;;;;;;;;;;;;;;5009696;28;19910;-63
2024/03/27 13:31:32;;;;;;;;;;;;;;;;;;5007992;28;19956;-62
2024/03/27 13:33:58;;;;;;;;;;;;;;;;;;5009335;28;19967;-62
2024/03/27 13:36:24;;;;;;;;;;;;;;;;;;5010035;28;19948;-62
2024/03/27 13:38:50;;;;;;;;;;;;;;;;;;5011703;28;19971;-63
2024/03/27 13:41:16;;;;;;;;;;;;;;;;;;5008226;28;19922;-62
2024/03/27 13:43:41;;;;;;;;;;;;;;;;;;5009484;28;19921;-62
2024/03/27 13:46:07;;;;;;;;;;;;;;;;;;5009330;28;19914;-62
2024/03/27 13:48:33;;;;;;;;;;;;;;;;;;5009955;28;19920;-63
2024/03/27 13:50:59;;;;;;;;;;;;;;;;;;5015380;28;19920;-61
2024/03/27 13:53:25;;;;;;;;;;;;;;;;;;5017376;28;20446;-61
2024/03/27 13:55:51;;;;;;;;;;;;;;;;;;5008570;28;19913;-61
2024/03/27 13:58:17;;;;;;;;;;;;;;;;;;5020068;28;19909;-63
2024/03/27 14:00:42;;;;;;;;;;;;;;;;;;5009842;28;19944;-62
2024/03/27 14:03:08;;;;;;;;;;;;;;;;;;5011740;28;20433;-63
2024/03/27 14:05:34;;;;;;;;;;;;;;;;;;5007848;28;19940;-62
2024/03/27 14:08:04;;;;;;;;;;;;;;;;;;5009455;28;19916;-63
2024/03/27 14:10:30;;;;;;;;;;;;;;;;;;5011842;28;19909;-63
2024/03/27 14:12:56;;;;;;;;;;;;;;;;;;5014404;28;20343;-62
2024/03/27 14:15:22;;;;;;;;;;;;;;;;;;5018553;28;19923;-62
2024/03/27 14:17:48;;;;;;;;;;;;;;;;;;5008648;28;19963;-61
2024/03/27 14:20:13;;;;;;;;;;;;;;;;;;5008109;28;19967;-61
2024/03/27 14:22:39;;;;;;;;;;;;;;;;;;5013503;28;19928;-63
2024/03/27 14:25:05;;;;;;;;;;;;;;;;;;5010678;28;19970;-63
2024/03/27 14:27:31;;;;;;;;;;;;;;;;;;5014369;28;20000;-63
2024/03/27 14:29:57;;;;;;;;;;;;;;;;;;5015186;28;19914;-63
2024/03/27 14:32:23;;;;;;;;;;;;;;;;;;5012485;28;20380;-66
2024/03/27 14:34:49;;;;;;;;;;;;;;;;;;5017865;28;19928;-63
2024/03/27 14:37:14;;;;;;;;;;;;;;;;;;5014814;28;19920;-63
2024/03/27 14:39:40;;;;;;;;;;;;;;;;;;5011976;28;19913;-63
2024/03/27 14:42:06;;;;;;;;;;;;;;;;;;5014035;28;20364;-63
2024/03/27 14:44:32;;;;;;;;;;;;;;;;;;5015207;28;19936;-63
2024/03/27 14:46:58;;;;;;;;;;;;;;;;;;5013071;28;19913;-63
2024/03/27 14:49:24;;;;;;;;;;;;;;;;;;5017690;28;19914;-62
2024/03/27 14:51:50;;;;;;;;;;;;;;;;;;5013508;28;20005;-63
2024/03/27 14:54:15;;;;;;;;;;;;;;;;;;5012544;28;19975;-63
2024/03/27 14:56:41;;;;;;;;;;;;;;;;;;5012677;28;19916;-63
2024/03/27 14:59:08;;;;;;;;;;;;;;;;;;5013890;28;20336;-63
2024/03/27 15:01:34;;;;;;;;;;;;;;;;;;5011638;28;20538;-63
2024/03/27 15:04:00;;;;;;;;;;;;;;;;;;5012901;28;19992;-63
2024/03/27 15:06:26;;;;;;;;;;;;;;;;;;5013055;28;20394;-63
2024/03/27 15:08:52;;;;;;;;;;;;;;;;;;5011409;28;19919;-63
2024/03/27 15:11:17;;;;;;;;;;;;;;;;;;5016855;28;19909;-62
2024/03/27 15:13:43;;;;;;;;;;;;;;;;;;5012883;28;19983;-63
2024/03/27 15:16:09;;;;;;;;;;;;;;;;;;5014749;28;19909;-63
2024/03/27 15:18:35;;;;;;;;;;;;;;;;;;5018534;28;20311;-63
2024/03/27 15:21:01;;;;;;;;;;;;;;;;;;5018578;28;19909;-64
2024/03/27 15:23:27;;;;;;;;;;;;;;;;;;5011415;28;20390;-62
2024/03/27 15:25:53;;;;;;;;;;;;;;;;;;5011474;28;19913;-62
2024/03/27 15:28:18;;;;;;;;;;;;;;;;;;5009819;28;20020;-62
2024/03/27 15:30:44;;;;;;;;;;;;;;;;;;5016944;28;19917;-62
2024/03/27 15:33:10;;;;;;;;;;;;;;;;;;5010899;28;20612;-61
2024/03/27 15:35:36;;;;;;;;;;;;;;;;;;5014293;28;19928;-62
2024/03/27 15:38:02;;;;;;;;;;;;;;;;;;5010137;28;19988;-63
2024/03/27 15:40:28;;;;;;;;;;;;;;;;;;5015397;28;19909;-63
2024/03/27 15:42:54;;;;;;;;;;;;;;;;;;5013006;28;20608;-63
2024/03/27 15:45:20;;;;;;;;;;;;;;;;;;5013211;28;19914;-63
2024/03/27 15:47:46;;;;;;;;;;;;;;;;;;5012311;28;19935;-64
2024/03/27 15:50:12;;;;;;;;;;;;;;;;;;5011449;28;19910;-62
2024/03/27 15:52:38;;;;;;;;;;;;;;;;;;5011112;28;19913;-63
2024/03/27 15:55:04;;;;;;;;;;;;;;;;;;5010148;28;20350;-63
2024/03/27 15:57:30;;;;;;;;;;;;;;;;;;5014007;28;19914;-62
2024/03/27 15:59:55;;;;;;;;;;;;;;;;;;5014452;28;19914;-61
2024/03/27 16:02:21;;;;;;;;;;;;;;;;;;5010851;28;19914;-62
2024/03/27 16:04:48;;;;;;;;;;;;;;;;;;5010888;28;19913;-63
2024/03/27 16:07:14;;;;;;;;;;;;;;;;;;5009797;28;19917;-61
2024/03/27 16:09:39;;;;;;;;;;;;;;;;;;5011087;28;19932;-62
2024/03/27 16:12:05;;;;;;;;;;;;;;;;;;5011719;28;20025;-62
2024/03/27 16:14:33;;;;;;;;;;;;;;;;;;5011207;28;20292;-62
2024/03/27 16:16:59;;;;;;;;;;;;;;;;;;5011608;28;20052;-63
2024/03/27 16:19:25;;;;;;;;;;;;;;;;;;5011956;28;19963;-63
2024/03/27 16:21:51;;;;;;;;;;;;;;;;;;5012399;28;19909;-62
2024/03/27 16:24:16;;;;;;;;;;;;;;;;;;5011657;28;20015;-64
2024/03/27 16:26:42;;;;;;;;;;;;;;;;;;5011563;28;19920;-64
2024/03/27 16:29:08;;;;;;;;;;;;;;;;;;5014989;28;20028;-62
2024/03/27 16:31:34;;;;;;;;;;;;;;;;;;5010214;28;20292;-64
2024/03/27 16:34:01;;;;;;;;;;;;;;;;;;5013902;28;20003;-64
2024/03/27 16:36:27;;;;;;;;;;;;;;;;;;5014907;28;19961;-63